Time;durP1;ratioP1;P1;durP2;ratioP2;P2;SDS_P1;SDS_P2;PMS_P1;PMS_P2;Temp;Humidity;BMP_temperature;BMP_pressure;BME280_temperature;BME280_humidity;BME280_pressure;Samples;Min_cycle;Max_cycle;Signal;HPM_P1;HPM_P2
2024/01/17 00:01:10;;;;;;;30.60;13.50;;;;;;;-3.25;70.28;98572.92;105076;1259;97246;-72
2024/01/17 00:03:53;;;;;;;29.80;13.10;;;;;;;-3.35;70.08;98570.73;105522;1259;97519;-71
2024/01/17 00:06:20;;;;;;;21.90;12.20;;;;;;;-3.43;70.22;98564.33;105443;1259;109495;-72
2024/01/17 00:08:48;;;;;;;23.60;11.00;;;;;;;-3.50;70.33;98564.14;105287;1256;97114;-72
2024/01/17 00:11:16;;;;;;;22.00;10.20;;;;;;;-3.57;70.27;98566.90;105483;1256;107445;-73
2024/01/17 00:13:44;;;;;;;23.40;11.70;;;;;;;-3.64;70.42;98561.51;105379;1257;97431;-72
2024/01/17 00:16:20;;;;;;;25.70;12.50;;;;;;;-3.68;70.73;98561.09;105505;1257;96601;-71
2024/01/17 00:18:48;;;;;;;26.80;13.70;;;;;;;-3.70;70.47;98559.92;105339;1259;109873;-72
2024/01/17 00:21:18;;;;;;;25.40;12.70;;;;;;;-3.67;70.33;98565.05;105365;1261;96622;-71
2024/01/17 00:23:45;;;;;;;20.40;10.80;;;;;;;-3.63;70.63;98561.48;105351;1260;107723;-71
2024/01/17 00:26:13;;;;;;;22.90;10.40;;;;;;;-3.59;70.70;98562.27;105587;1254;97819;-72
2024/01/17 00:28:41;;;;;;;19.40;9.70;;;;;;;-3.62;70.72;98559.40;105469;1254;96515;-72
2024/01/17 00:31:09;;;;;;;21.20;10.20;;;;;;;-3.68;70.64;98561.77;105699;1256;110047;-73
2024/01/17 00:33:36;;;;;;;20.80;10.60;;;;;;;-3.68;70.57;98556.93;105578;1257;96497;-71
2024/01/17 00:36:05;;;;;;;24.70;12.00;;;;;;;-3.69;70.57;98564.05;105484;1254;108749;-71
2024/01/17 00:38:33;;;;;;;21.90;11.50;;;;;;;-3.72;70.46;98570.20;105493;1258;96760;-73
2024/01/17 00:41:04;;;;;;;25.70;12.20;;;;;;;-3.78;70.44;98576.55;105618;1256;97112;-71
2024/01/17 00:43:32;;;;;;;29.20;13.60;;;;;;;-3.85;70.46;98584.68;105553;1256;108480;-71
2024/01/17 00:46:00;;;;;;;25.50;11.80;;;;;;;-3.86;70.52;98585.05;105408;1268;97397;-71
2024/01/17 00:48:28;;;;;;;26.20;10.90;;;;;;;-3.82;70.60;98578.56;105605;1257;107288;-71
2024/01/17 00:50:56;;;;;;;26.60;12.00;;;;;;;-3.78;70.64;98573.61;105654;1254;96594;-72
2024/01/17 00:53:24;;;;;;;23.40;11.10;;;;;;;-3.75;70.42;98572.85;105479;1256;96703;-72
2024/01/17 00:55:52;;;;;;;25.80;12.40;;;;;;;-3.77;70.39;98570.81;105614;1256;109158;-71
2024/01/17 00:58:20;;;;;;;23.60;11.90;;;;;;;-3.79;70.36;98573.63;105744;1256;96536;-71
2024/01/17 01:00:47;;;;;;;24.70;11.60;;;;;;;-3.85;70.30;98573.77;105513;1256;107440;-71
2024/01/17 01:03:15;;;;;;;21.20;11.20;;;;;;;-3.94;70.09;98573.45;105493;1254;97413;-71
2024/01/17 01:05:46;;;;;;;22.40;10.20;;;;;;;-4.02;70.13;98568.07;105737;1256;96504;-73
2024/01/17 01:08:13;;;;;;;22.20;10.00;;;;;;;-4.06;70.28;98568.50;105389;1258;111199;-72
2024/01/17 01:10:41;;;;;;;20.20;9.80;;;;;;;-4.08;70.27;98570.80;105194;1254;96600;-72
2024/01/17 01:13:09;;;;;;;21.60;9.80;;;;;;;-4.13;70.30;98573.68;105129;1254;105509;-71
2024/01/17 01:15:37;;;;;;;16.50;8.80;;;;;;;-4.14;70.50;98582.17;105597;1259;96688;-72
2024/01/17 01:18:05;;;;;;;16.90;8.10;;;;;;;-4.19;70.74;98583.32;105424;1253;97924;-72
2024/01/17 01:20:35;;;;;;;18.90;8.80;;;;;;;-4.25;70.53;98582.75;105430;1254;107900;-71
2024/01/17 01:23:03;;;;;;;20.00;9.20;;;;;;;-4.27;70.40;98581.41;105381;1253;96597;-71
2024/01/17 01:25:31;;;;;;;22.50;8.70;;;;;;;-4.30;70.84;98582.86;105545;1257;107742;-71
2024/01/17 01:27:59;;;;;;;14.80;7.00;;;;;;;-4.34;70.83;98580.68;105474;1259;96644;-72
2024/01/17 01:30:28;;;;;;;17.10;7.80;;;;;;;-4.36;70.80;98573.45;105642;1254;97332;-71
2024/01/17 01:32:56;;;;;;;12.50;6.80;;;;;;;-4.37;70.73;98565.68;105616;1256;109566;-72
2024/01/17 01:35:24;;;;;;;18.00;8.10;;;;;;;-4.38;70.55;98568.48;105355;1254;97799;-72
2024/01/17 01:37:52;;;;;;;17.30;8.40;;;;;;;-4.39;70.64;98560.02;105468;1256;106806;-72
2024/01/17 01:40:20;;;;;;;13.70;7.90;;;;;;;-4.40;70.52;98560.88;105284;1254;97051;-71
2024/01/17 01:42:48;;;;;;;14.10;7.60;;;;;;;-4.42;70.50;98559.39;105424;1259;97338;-71
2024/01/17 01:45:16;;;;;;;18.30;8.70;;;;;;;-4.45;70.40;98557.00;105580;1256;109471;-72
2024/01/17 01:47:44;;;;;;;16.50;8.10;;;;;;;-4.47;70.61;98553.92;105464;1256;96594;-72
2024/01/17 01:50:12;;;;;;;18.90;8.20;;;;;;;-4.51;70.42;98552.29;105600;1256;107098;-73
2024/01/17 01:52:45;;;;;;;16.10;7.80;;;;;;;-4.53;70.34;98549.04;105478;1256;96599;-73
2024/01/17 01:55:13;;;;;;;17.20;8.30;;;;;;;-4.51;70.40;98544.66;105697;1256;96602;-74
2024/01/17 01:57:50;;;;;;;13.70;7.50;;;;;;;-4.53;70.20;98549.55;105611;1257;110007;-71
2024/01/17 02:00:18;;;;;;;13.60;7.70;;;;;;;-4.54;70.29;98548.19;105678;1256;97515;-72
2024/01/17 02:02:47;;;;;;;14.70;7.30;;;;;;;-4.55;70.34;98546.66;105819;1256;108331;-71
2024/01/17 02:05:15;;;;;;;17.60;8.30;;;;;;;-4.63;70.34;98546.27;105677;1256;97918;-72
2024/01/17 02:07:43;;;;;;;13.50;6.60;;;;;;;-4.67;70.27;98545.84;105782;1256;97953;-72
2024/01/17 02:10:11;;;;;;;11.00;5.90;;;;;;;-4.72;70.36;98544.23;106446;1256;109977;-71
2024/01/17 02:12:40;;;;;;;16.20;7.40;;;;;;;-4.77;70.49;98546.21;105676;1254;96577;-73
2024/01/17 02:15:08;;;;;;;12.30;5.60;;;;;;;-4.81;70.62;98548.52;105399;1259;107231;-72
2024/01/17 02:17:36;;;;;;;10.70;6.40;;;;;;;-4.84;70.62;98549.09;105503;1254;97862;-70
2024/01/17 02:20:04;;;;;;;16.80;7.80;;;;;;;-4.85;70.62;98547.05;106072;1256;97958;-71
2024/01/17 02:22:32;;;;;;;13.50;5.80;;;;;;;-4.86;70.81;98541.87;105494;1253;107825;-72
2024/01/17 02:25:04;;;;;;;12.40;6.30;;;;;;;-4.90;71.03;98544.02;105625;1259;96692;-72
2024/01/17 02:27:32;;;;;;;13.90;6.20;;;;;;;-4.91;70.78;98540.23;105414;1264;107604;-70
2024/01/17 02:30:01;;;;;;;12.60;6.90;;;;;;;-4.90;70.64;98536.59;105285;1256;96684;-71
2024/01/17 02:32:29;;;;;;;14.20;6.10;;;;;;;-4.92;70.65;98533.34;105382;1256;96594;-71
2024/01/17 02:34:58;;;;;;;8.30;4.40;;;;;;;-4.98;70.82;98534.14;105512;1253;109743;-71
2024/01/17 02:37:25;;;;;;;14.90;6.30;;;;;;;-5.00;70.79;98538.33;105617;1256;96587;-72
2024/01/17 02:39:53;;;;;;;13.70;5.70;;;;;;;-5.01;70.78;98538.16;105293;1254;107625;-71
2024/01/17 02:42:21;;;;;;;14.40;6.50;;;;;;;-5.00;70.98;98536.07;105440;1260;96622;-72
2024/01/17 02:44:50;;;;;;;11.70;5.80;;;;;;;-5.01;70.68;98526.92;105485;1256;96593;-71
2024/01/17 02:47:18;;;;;;;10.20;5.60;;;;;;;-5.02;70.57;98521.92;105623;1256;110615;-72
2024/01/17 02:49:46;;;;;;;8.10;4.50;;;;;;;-5.04;70.59;98525.08;105478;1259;97588;-72
2024/01/17 02:52:14;;;;;;;13.30;5.40;;;;;;;-5.06;70.59;98522.34;105397;1256;107337;-71
2024/01/17 02:54:42;;;;;;;11.80;5.30;;;;;;;-5.08;70.73;98519.09;105501;1254;96628;-72
2024/01/17 02:57:10;;;;;;;10.10;5.20;;;;;;;-5.08;70.76;98520.13;105755;1258;96571;-71
2024/01/17 02:59:38;;;;;;;15.10;5.70;;;;;;;-5.08;70.73;98519.61;105377;1254;109978;-72
2024/01/17 03:02:05;;;;;;;14.50;5.10;;;;;;;-5.09;70.90;98516.00;105630;1257;96625;-71
2024/01/17 03:04:33;;;;;;;9.70;4.90;;;;;;;-5.09;70.85;98514.10;105394;1267;107608;-72
2024/01/17 03:07:01;;;;;;;9.20;5.00;;;;;;;-5.10;70.85;98517.05;105710;1256;96664;-73
2024/01/17 03:09:29;;;;;;;9.10;4.90;;;;;;;-5.11;70.89;98513.63;105564;1257;96606;-72
2024/01/17 03:11:57;;;;;;;12.80;5.10;;;;;;;-5.09;70.59;98511.85;105353;1256;108231;-71
2024/01/17 03:14:25;;;;;;;6.30;3.70;;;;;;;-5.05;70.94;98512.81;105431;1254;97047;-71
2024/01/17 03:16:53;;;;;;;12.80;6.10;;;;;;;-5.08;71.13;98514.60;105359;1259;107335;-71
2024/01/17 03:19:21;;;;;;;11.20;4.90;;;;;;;-5.07;70.82;98511.98;105485;1259;97568;-73
2024/01/17 03:21:50;;;;;;;9.00;4.80;;;;;;;-5.05;71.05;98511.61;105508;1257;96594;-71
2024/01/17 03:24:18;;;;;;;9.30;4.60;;;;;;;-5.04;70.85;98511.94;105489;1256;109919;-71
2024/01/17 03:26:46;;;;;;;12.50;5.30;;;;;;;-5.08;70.77;98511.48;105395;1256;96524;-71
2024/01/17 03:29:14;;;;;;;10.00;5.60;;;;;;;-5.12;70.82;98508.28;105548;1260;107347;-71
2024/01/17 03:31:42;;;;;;;12.10;5.90;;;;;;;-5.16;71.14;98507.84;105350;1259;96596;-71
2024/01/17 03:34:09;;;;;;;12.20;6.10;;;;;;;-5.17;70.82;98503.70;105535;1256;96579;-71
2024/01/17 03:36:37;;;;;;;11.10;5.20;;;;;;;-5.19;70.84;98501.85;105333;1254;109974;-71
2024/01/17 03:39:06;;;;;;;12.70;5.30;;;;;;;-5.20;70.72;98495.64;105333;1258;96602;-73
2024/01/17 03:41:33;;;;;;;11.70;5.90;;;;;;;-5.22;70.93;98491.86;105588;1257;107065;-71
2024/01/17 03:44:02;;;;;;;12.20;4.80;;;;;;;-5.22;70.77;98488.76;105674;1257;96607;-71
2024/01/17 03:46:30;;;;;;;10.10;4.80;;;;;;;-5.20;71.16;98488.71;105643;1256;96655;-72
2024/01/17 03:48:59;;;;;;;11.20;5.90;;;;;;;-5.24;71.12;98484.27;105781;1256;109524;-71
2024/01/17 03:51:27;;;;;;;9.50;4.40;;;;;;;-5.28;71.00;98479.16;105398;1260;96518;-70
2024/01/17 03:53:56;;;;;;;8.60;4.70;;;;;;;-5.31;70.92;98475.95;105502;1253;106528;-72
2024/01/17 03:56:24;;;;;;;13.60;6.00;;;;;;;-5.32;70.77;98472.17;105531;1260;96683;-72
2024/01/17 03:58:52;;;;;;;9.90;4.90;;;;;;;-5.32;70.83;98463.88;105651;1264;97042;-71
2024/01/17 04:01:20;;;;;;;11.40;5.40;;;;;;;-5.29;70.97;98459.84;105358;1257;109878;-72
2024/01/17 04:03:49;;;;;;;11.40;5.00;;;;;;;-5.26;71.03;98455.10;105375;1261;97897;-73
2024/01/17 04:06:16;;;;;;;8.30;4.60;;;;;;;-5.21;70.98;98459.17;105672;1265;107361;-70
2024/01/17 04:08:44;;;;;;;10.40;5.30;;;;;;;-5.18;71.22;98456.52;105622;1267;96606;-70
2024/01/17 04:11:12;;;;;;;10.70;5.60;;;;;;;-5.18;70.82;98455.31;105418;1254;97816;-69
2024/01/17 04:13:42;;;;;;;10.70;3.80;;;;;;;-5.16;70.84;98455.80;105681;1257;110468;-70
2024/01/17 04:16:11;;;;;;;11.20;5.30;;;;;;;-5.15;71.10;98456.48;105659;1259;96692;-72
2024/01/17 04:18:39;;;;;;;8.10;5.30;;;;;;;-5.15;71.12;98454.41;105593;1256;106624;-71
2024/01/17 04:21:06;;;;;;;10.10;5.20;;;;;;;-5.16;70.92;98451.47;105570;1256;96602;-71
2024/01/17 04:23:35;;;;;;;9.90;5.10;;;;;;;-5.15;71.06;98453.02;105616;1254;96585;-71
2024/01/17 04:26:03;;;;;;;9.60;5.30;;;;;;;-5.13;71.19;98451.43;105606;1257;110088;-71
2024/01/17 04:28:31;;;;;;;10.20;5.50;;;;;;;-5.13;71.25;98451.25;105404;1259;97833;-70
2024/01/17 04:30:59;;;;;;;12.70;5.30;;;;;;;-5.13;71.62;98449.85;105635;1266;105573;-70
2024/01/17 04:33:27;;;;;;;8.80;5.00;;;;;;;-5.09;71.41;98448.76;105698;1265;96585;-72
2024/01/17 04:35:55;;;;;;;10.60;5.50;;;;;;;-5.03;71.22;98442.58;105552;1267;96595;-72
2024/01/17 04:38:22;;;;;;;12.00;5.60;;;;;;;-4.97;71.55;98445.23;105553;1256;109569;-69
2024/01/17 04:40:50;;;;;;;10.10;4.80;;;;;;;-4.93;71.25;98443.26;108635;1253;95476;-71
2024/01/17 04:43:18;;;;;;;9.20;5.00;;;;;;;-4.88;71.17;98444.70;108646;1254;107686;-70
2024/01/17 04:45:48;;;;;;;13.00;6.30;;;;;;;-4.84;71.34;98442.38;107048;1257;97923;-70
2024/01/17 04:48:16;;;;;;;11.20;5.10;;;;;;;-4.82;71.19;98436.11;105527;1257;96589;-71
2024/01/17 04:50:48;;;;;;;10.50;5.20;;;;;;;-4.78;71.10;98440.36;105505;1253;111081;-71
2024/01/17 04:53:16;;;;;;;11.00;5.60;;;;;;;-4.76;70.94;98446.02;105516;1258;96600;-72
2024/01/17 04:55:44;;;;;;;10.60;5.10;;;;;;;-4.75;71.12;98448.77;105429;1254;107562;-72
2024/01/17 04:58:11;;;;;;;8.80;4.00;;;;;;;-4.74;71.00;98449.12;105417;1260;96593;-70
2024/01/17 05:00:39;;;;;;;11.50;5.60;;;;;;;-4.76;71.38;98448.11;105246;1264;96670;-71
2024/01/17 05:03:07;;;;;;;10.30;5.40;;;;;;;-4.78;70.94;98447.81;105898;1265;109926;-72
2024/01/17 05:05:36;;;;;;;12.70;6.20;;;;;;;-4.78;71.05;98447.11;105571;1262;96619;-72
2024/01/17 05:08:04;;;;;;;11.00;5.70;;;;;;;-4.80;71.03;98449.20;105612;1259;107628;-72
2024/01/17 05:10:32;;;;;;;14.70;6.00;;;;;;;-4.82;70.94;98445.61;105604;1266;96680;-72
2024/01/17 05:13:00;;;;;;;13.90;5.30;;;;;;;-4.83;70.75;98449.63;105536;1261;96680;-70
2024/01/17 05:15:27;;;;;;;11.40;5.70;;;;;;;-4.86;70.81;98448.46;105818;1255;109280;-71
2024/01/17 05:17:56;;;;;;;14.50;6.60;;;;;;;-4.87;70.77;98449.19;105732;1254;96536;-71
2024/01/17 05:20:24;;;;;;;14.00;6.30;;;;;;;-4.88;70.61;98450.93;105944;1257;105378;-71
2024/01/17 05:22:52;;;;;;;11.90;5.50;;;;;;;-4.90;70.69;98450.10;105596;1266;97436;-71
2024/01/17 05:25:19;;;;;;;10.50;4.80;;;;;;;-4.95;70.75;98452.61;105609;1256;96533;-70
2024/01/17 05:27:51;;;;;;;10.70;5.60;;;;;;;-4.97;70.70;98449.73;105561;1257;108726;-71
2024/01/17 05:30:25;;;;;;;13.20;5.10;;;;;;;-4.98;70.68;98445.77;105435;1258;96521;-72
2024/01/17 05:32:54;;;;;;;7.80;5.40;;;;;;;-4.99;70.73;98445.45;105388;1273;107259;-71
2024/01/17 05:35:22;;;;;;;10.70;5.40;;;;;;;-5.01;70.80;98440.83;105415;1257;96593;-72
2024/01/17 05:37:50;;;;;;;10.20;5.20;;;;;;;-5.04;70.59;98438.97;105770;1258;96610;-71
2024/01/17 05:40:18;;;;;;;13.60;6.40;;;;;;;-5.06;70.62;98439.69;105430;1264;109924;-72
2024/01/17 05:42:46;;;;;;;16.10;6.30;;;;;;;-5.08;70.43;98435.57;105667;1258;96584;-71
2024/01/17 05:45:14;;;;;;;12.70;6.60;;;;;;;-5.05;70.58;98430.17;105555;1266;107522;-71
2024/01/17 05:47:42;;;;;;;14.20;5.70;;;;;;;-5.05;70.56;98419.79;105381;1257;96662;-71
2024/01/17 05:50:11;;;;;;;13.00;6.50;;;;;;;-5.05;70.53;98420.15;105473;1257;97563;-72
2024/01/17 05:52:48;;;;;;;10.90;6.40;;;;;;;-5.04;70.69;98413.55;105489;1264;111473;-73
2024/01/17 05:55:17;;;;;;;11.10;6.30;;;;;;;-5.01;70.73;98414.02;105509;1257;97420;-71
2024/01/17 05:57:45;;;;;;;15.40;6.10;;;;;;;-5.01;70.49;98406.73;105728;1264;106641;-72
2024/01/17 06:00:13;;;;;;;11.90;6.10;;;;;;;-4.98;70.78;98406.17;105276;1260;96597;-71
2024/01/17 06:02:42;;;;;;;15.80;6.70;;;;;;;-4.95;70.69;98403.17;105548;1261;96610;-72
2024/01/17 06:05:16;;;;;;;11.80;5.80;;;;;;;-4.89;70.83;98397.70;105836;1256;111307;-72
2024/01/17 06:07:44;;;;;;;11.40;5.60;;;;;;;-4.86;70.73;98396.39;107069;1254;96613;-71
2024/01/17 06:10:13;;;;;;;14.60;6.30;;;;;;;-4.83;70.83;98397.56;106990;1254;107182;-72
2024/01/17 06:12:42;;;;;;;12.00;6.10;;;;;;;-4.82;70.97;98402.21;105828;1257;96654;-72
2024/01/17 06:15:17;;;;;;;10.00;5.60;;;;;;;-4.79;70.75;98398.49;105636;1257;97931;-75
2024/01/17 06:17:46;;;;;;;11.60;5.20;;;;;;;-4.72;70.93;98393.01;105867;1254;109947;-76
2024/01/17 06:20:16;;;;;;;9.20;4.50;;;;;;;-4.64;70.78;98396.13;108380;1257;94953;-74
2024/01/17 06:22:44;;;;;;;9.30;5.00;;;;;;;-4.59;70.76;98392.89;105673;1257;106704;-75
2024/01/17 06:25:12;;;;;;;9.60;5.40;;;;;;;-4.56;70.74;98386.08;105517;1257;96673;-75
2024/01/17 06:27:40;;;;;;;10.70;5.40;;;;;;;-4.55;70.78;98388.14;105463;1260;96972;-75
2024/01/17 06:30:08;;;;;;;10.40;5.30;;;;;;;-4.54;70.48;98386.39;105293;1256;110000;-74
2024/01/17 06:32:36;;;;;;;7.50;3.90;;;;;;;-4.56;70.42;98386.42;105660;1257;96511;-78
2024/01/17 06:35:04;;;;;;;9.30;5.40;;;;;;;-4.57;70.60;98388.19;105509;1258;107599;-75
2024/01/17 06:37:32;;;;;;;18.50;6.10;;;;;;;-4.55;70.55;98388.33;105529;1267;96998;-75
2024/01/17 06:40:00;;;;;;;13.40;6.60;;;;;;;-4.55;70.64;98383.81;105444;1258;97940;-75
2024/01/17 06:42:28;;;;;;;8.90;4.40;;;;;;;-4.54;70.59;98376.70;105580;1257;108991;-75
2024/01/17 06:44:56;;;;;;;10.50;4.70;;;;;;;-4.54;70.47;98369.27;105459;1260;96622;-77
2024/01/17 06:47:23;;;;;;;9.70;4.60;;;;;;;-4.58;70.36;98367.77;105173;1257;107675;-76
2024/01/17 06:49:51;;;;;;;11.90;5.20;;;;;;;-4.60;70.29;98360.73;105607;1266;97418;-76
2024/01/17 06:52:19;;;;;;;7.70;3.80;;;;;;;-4.61;70.56;98361.78;105494;1259;96600;-74
2024/01/17 06:54:47;;;;;;;12.30;5.50;;;;;;;-4.60;70.31;98360.39;105299;1263;109865;-80
2024/01/17 06:57:15;;;;;;;13.40;5.10;;;;;;;-4.58;70.52;98354.47;105498;1258;96590;-75
2024/01/17 06:59:43;;;;;;;13.10;5.30;;;;;;;-4.56;70.48;98352.69;105551;1258;107559;-75
2024/01/17 07:02:11;;;;;;;10.20;5.30;;;;;;;-4.57;70.37;98349.42;105678;1254;96603;-74
2024/01/17 07:04:41;;;;;;;13.90;5.50;;;;;;;-4.56;70.37;98345.60;105292;1254;96596;-74
2024/01/17 07:07:09;;;;;;;10.20;5.70;;;;;;;-4.52;70.41;98343.41;105486;1257;110650;-75
2024/01/17 07:09:37;;;;;;;9.40;4.40;;;;;;;-4.50;70.34;98339.06;105495;1257;96597;-75
2024/01/17 07:12:05;;;;;;;13.00;6.30;;;;;;;-4.49;70.59;98339.03;105307;1258;105587;-76
2024/01/17 07:14:33;;;;;;;11.80;6.10;;;;;;;-4.48;70.31;98334.34;105487;1260;96688;-75
2024/01/17 07:17:01;;;;;;;8.70;5.60;;;;;;;-4.48;70.39;98334.51;105247;1267;96579;-74
2024/01/17 07:19:29;;;;;;;8.80;5.00;;;;;;;-4.46;70.29;98330.84;105349;1257;109365;-74
2024/01/17 07:21:57;;;;;;;10.70;5.10;;;;;;;-4.46;70.06;98332.89;105534;1266;96613;-81
2024/01/17 07:24:25;;;;;;;10.70;5.60;;;;;;;-4.47;70.26;98332.39;105527;1254;107625;-74
2024/01/17 07:26:52;;;;;;;8.90;4.40;;;;;;;-4.45;70.30;98332.71;105215;1258;96600;-76
2024/01/17 07:29:20;;;;;;;7.60;4.40;;;;;;;-4.44;70.33;98330.09;105399;1257;97975;-74
2024/01/17 07:31:50;;;;;;;11.00;5.20;;;;;;;-4.42;70.15;98331.42;105575;1255;108919;-75
2024/01/17 07:34:18;;;;;;;7.20;4.40;;;;;;;-4.37;70.32;98333.54;105407;1257;96589;-74
2024/01/17 07:36:46;;;;;;;9.80;5.00;;;;;;;-4.32;70.37;98327.73;105513;1257;106144;-75
2024/01/17 07:39:14;;;;;;;15.50;4.80;;;;;;;-4.26;70.31;98326.19;105582;1257;96690;-74
2024/01/17 07:41:42;;;;;;;7.90;4.20;;;;;;;-4.20;70.24;98321.02;105560;1256;96597;-75
2024/01/17 07:44:10;;;;;;;10.00;4.30;;;;;;;-4.15;70.35;98314.33;105528;1271;110548;-75
2024/01/17 07:46:38;;;;;;;15.90;5.60;;;;;;;-4.10;70.45;98314.54;105454;1257;96507;-75
2024/01/17 07:49:06;;;;;;;8.70;5.10;;;;;;;-4.03;70.26;98311.24;105582;1266;107567;-75
2024/01/17 07:51:34;;;;;;;10.20;4.80;;;;;;;-3.99;70.14;98305.26;105593;1265;97515;-75
2024/01/17 07:54:02;;;;;;;8.40;5.00;;;;;;;-3.96;70.18;98303.96;105550;1255;97746;-75
2024/01/17 07:56:30;;;;;;;11.50;5.30;;;;;;;-3.93;70.15;98304.05;105540;1257;109891;-78
2024/01/17 07:58:58;;;;;;;13.80;6.10;;;;;;;-3.90;70.00;98300.86;105658;1254;96542;-75
2024/01/17 08:01:26;;;;;;;10.80;5.80;;;;;;;-3.85;69.78;98302.83;105522;1258;107724;-75
2024/01/17 08:03:54;;;;;;;13.20;5.70;;;;;;;-3.82;69.93;98303.95;105732;1257;96591;-76
2024/01/17 08:06:22;;;;;;;12.40;6.10;;;;;;;-3.76;70.19;98299.80;105399;1254;96500;-77
2024/01/17 08:08:52;;;;;;;13.20;6.20;;;;;;;-3.70;70.12;98289.42;105316;1258;108964;-75
2024/01/17 08:11:20;;;;;;;11.10;5.60;;;;;;;-3.63;70.05;98283.50;105456;1254;96590;-75
2024/01/17 08:13:48;;;;;;;8.90;5.30;;;;;;;-3.56;70.09;98277.95;105305;1260;107649;-75
2024/01/17 08:16:16;;;;;;;9.30;5.40;;;;;;;-3.49;70.05;98276.02;105149;1260;97931;-74
2024/01/17 08:18:44;;;;;;;13.10;5.90;;;;;;;-3.42;70.38;98276.16;105301;1256;96595;-74
2024/01/17 08:21:12;;;;;;;10.50;5.90;;;;;;;-3.34;70.27;98275.08;105486;1254;110060;-75
2024/01/17 08:23:40;;;;;;;13.50;6.60;;;;;;;-3.26;70.05;98273.98;105575;1254;96579;-74
2024/01/17 08:26:08;;;;;;;9.80;5.00;;;;;;;-3.21;70.10;98264.47;105332;1267;107625;-75
2024/01/17 08:28:36;;;;;;;13.60;7.30;;;;;;;-3.15;69.91;98260.48;105398;1254;96627;-75
2024/01/17 08:31:05;;;;;;;12.30;5.90;;;;;;;-3.08;69.88;98261.48;105305;1267;97473;-75
2024/01/17 08:33:34;;;;;;;8.90;5.00;;;;;;;-3.03;69.66;98258.55;105390;1257;110005;-75
2024/01/17 08:36:02;;;;;;;14.80;7.00;;;;;;;-2.98;69.82;98259.61;105403;1258;96590;-79
2024/01/17 08:38:30;;;;;;;16.20;6.90;;;;;;;-2.93;69.63;98259.65;105278;1260;105593;-76
2024/01/17 08:40:58;;;;;;;13.80;7.10;;;;;;;-2.89;69.35;98260.89;105495;1257;96619;-75
2024/01/17 08:43:26;;;;;;;15.70;6.70;;;;;;;-2.85;69.30;98260.77;105435;1257;97914;-74
2024/01/17 08:45:54;;;;;;;13.40;6.40;;;;;;;-2.82;69.88;98260.34;105418;1267;110014;-75
2024/01/17 08:48:22;;;;;;;15.30;7.50;;;;;;;-2.78;69.43;98255.02;105187;1254;96587;-75
2024/01/17 08:50:49;;;;;;;17.90;7.90;;;;;;;-2.76;69.47;98254.09;105463;1256;107712;-76
2024/01/17 08:53:17;;;;;;;12.70;5.90;;;;;;;-2.72;69.88;98253.95;105474;1254;97806;-75
2024/01/17 08:55:47;;;;;;;12.50;7.00;;;;;;;-2.67;69.83;98248.43;105602;1257;98062;-75
2024/01/17 08:58:15;;;;;;;17.00;8.30;;;;;;;-2.63;69.36;98247.92;105705;1257;109406;-80
2024/01/17 09:00:42;;;;;;;14.50;7.70;;;;;;;-2.58;69.64;98245.52;105408;1260;96538;-76
2024/01/17 09:03:10;;;;;;;17.50;8.80;;;;;;;-2.53;69.51;98239.48;105366;1267;107318;-74
2024/01/17 09:05:39;;;;;;;19.90;9.10;;;;;;;-2.48;69.67;98238.09;105462;1267;97925;-75
2024/01/17 09:08:07;;;;;;;16.60;7.10;;;;;;;-2.41;69.94;98232.83;105409;1256;96533;-77
2024/01/17 09:10:35;;;;;;;15.40;8.20;;;;;;;-2.35;69.15;98228.80;105143;1257;109396;-76
2024/01/17 09:13:03;;;;;;;16.30;8.40;;;;;;;-2.29;69.60;98228.09;105288;1257;96584;-73
2024/01/17 09:15:31;;;;;;;17.70;8.40;;;;;;;-2.23;69.58;98217.30;105295;1256;105538;-74
2024/01/17 09:17:59;;;;;;;16.20;8.90;;;;;;;-2.18;69.80;98210.86;105549;1267;96706;-76
2024/01/17 09:20:27;;;;;;;16.40;8.30;;;;;;;-2.13;69.36;98204.06;105567;1256;97804;-77
2024/01/17 09:22:57;;;;;;;19.80;8.00;;;;;;;-2.07;69.29;98196.06;105545;1256;110000;-79
2024/01/17 09:25:24;;;;;;;15.70;7.80;;;;;;;-2.01;69.51;98194.11;105573;1257;96590;-77
2024/01/17 09:27:52;;;;;;;13.30;6.90;;;;;;;-1.95;69.28;98179.98;105664;1267;106100;-77
2024/01/17 09:30:20;;;;;;;13.30;6.60;;;;;;;-1.89;68.93;98169.20;105592;1253;96680;-75
2024/01/17 09:32:48;;;;;;;14.10;7.50;;;;;;;-1.85;69.01;98157.23;105401;1257;96740;-74
2024/01/17 09:35:17;;;;;;;12.10;7.40;;;;;;;-1.80;69.12;98151.65;105353;1254;109979;-77
2024/01/17 09:37:44;;;;;;;9.30;5.90;;;;;;;-1.74;69.20;98146.91;105511;1257;96562;-74
2024/01/17 09:40:13;;;;;;;13.40;6.40;;;;;;;-1.68;69.69;98142.16;105656;1258;107643;-75
2024/01/17 09:42:41;;;;;;;14.60;6.20;;;;;;;-1.64;69.20;98135.58;105496;1254;97522;-75
2024/01/17 09:45:10;;;;;;;18.80;8.90;;;;;;;-1.59;69.30;98134.36;105251;1267;96671;-74
2024/01/17 09:47:41;;;;;;;12.90;6.40;;;;;;;-1.56;69.42;98126.05;105326;1257;111575;-75
2024/01/17 09:50:10;;;;;;;16.00;8.60;;;;;;;-1.53;68.84;98124.38;105487;1257;96587;-74
2024/01/17 09:52:40;;;;;;;15.40;7.70;;;;;;;-1.49;69.44;98125.30;105781;1254;105448;-77
2024/01/17 09:55:09;;;;;;;15.40;8.00;;;;;;;-1.47;69.32;98118.94;105395;1256;96586;-75
2024/01/17 09:57:48;;;;;;;18.20;8.50;;;;;;;-1.46;69.13;98115.23;105342;1254;96561;-75
2024/01/17 10:00:16;;;;;;;15.70;7.60;;;;;;;-1.45;69.06;98113.29;105419;1257;109979;-75
2024/01/17 10:02:47;;;;;;;13.80;6.80;;;;;;;-1.41;69.30;98109.14;105729;1254;96661;-75
2024/01/17 10:05:16;;;;;;;13.50;6.40;;;;;;;-1.36;69.29;98103.55;105552;1254;109462;-75
2024/01/17 10:07:45;;;;;;;13.90;7.60;;;;;;;-1.31;69.04;98102.85;105521;1257;97522;-76
2024/01/17 10:10:13;;;;;;;15.10;7.70;;;;;;;-1.30;69.18;98099.84;105723;1253;96617;-76
2024/01/17 10:12:42;;;;;;;13.10;6.90;;;;;;;-1.27;69.16;98094.68;105638;1253;109989;-76
2024/01/17 10:15:16;;;;;;;14.60;6.60;;;;;;;-1.25;69.34;98087.11;105509;1256;97565;-75
2024/01/17 10:17:44;;;;;;;15.40;7.50;;;;;;;-1.25;69.22;98077.73;105412;1258;106623;-77
2024/01/17 10:20:12;;;;;;;11.40;6.40;;;;;;;-1.22;69.24;98072.19;105323;1256;97894;-79
2024/01/17 10:22:41;;;;;;;13.90;7.70;;;;;;;-1.19;68.97;98068.42;105688;1254;97133;-74
2024/01/17 10:25:11;;;;;;;15.60;7.00;;;;;;;-1.13;68.74;98065.40;105721;1254;109939;-75
2024/01/17 10:27:41;;;;;;;10.10;6.10;;;;;;;-1.05;68.65;98057.09;105666;1257;96654;-75
2024/01/17 10:30:10;;;;;;;11.70;5.90;;;;;;;-0.97;69.27;98052.41;105633;1257;107291;-77
2024/01/17 10:32:39;;;;;;;12.30;6.90;;;;;;;-0.88;68.69;98048.88;105533;1256;96591;-76
2024/01/17 10:35:07;;;;;;;11.90;6.30;;;;;;;-0.80;68.97;98039.16;105642;1255;95110;-75
2024/01/17 10:37:37;;;;;;;13.50;7.00;;;;;;;-0.71;68.13;98033.02;105738;1254;110351;-75
2024/01/17 10:40:11;;;;;;;11.50;5.80;;;;;;;-0.65;68.16;98026.84;105725;1257;97854;-75
2024/01/17 10:42:40;;;;;;;10.90;5.90;;;;;;;-0.58;68.61;98016.95;105746;1269;107430;-79
2024/01/17 10:45:33;;;;;;;12.60;5.60;;;;;;;-0.52;68.39;98002.58;105736;1257;96615;-74
2024/01/17 10:48:01;;;;;;;11.70;5.40;;;;;;;-0.44;68.73;97994.92;105587;1254;96511;-75
2024/01/17 10:50:30;;;;;;;10.30;5.10;;;;;;;-0.39;68.27;97989.45;105768;1256;109954;-76
2024/01/17 10:53:06;;;;;;;12.00;5.60;;;;;;;-0.34;68.15;97982.60;105735;1257;97836;-75
2024/01/17 10:55:36;;;;;;;12.40;6.50;;;;;;;-0.27;68.45;97978.51;105592;1260;107193;-74
2024/01/17 10:58:11;;;;;;;10.20;4.40;;;;;;;-0.22;68.64;97974.79;105265;1256;96590;-74
2024/01/17 11:03:56;;;;;;;11.60;5.00;;;;;;;-0.13;68.24;97953.25;102267;1294;639907;-75
2024/01/17 11:06:23;;;;;;;7.90;4.70;;;;;;;-0.11;67.75;97955.80;104642;1285;94229;-74
2024/01/17 11:08:51;;;;;;;10.20;5.30;;;;;;;-0.08;67.71;97954.05;104672;1267;94327;-74
2024/01/17 11:11:20;;;;;;;8.00;3.80;;;;;;;-0.03;68.12;97949.31;104624;1266;107305;-79
2024/01/17 11:13:49;;;;;;;8.80;5.30;;;;;;;0.01;67.14;97938.33;104607;1267;95451;-74
2024/01/17 11:16:18;;;;;;;14.00;6.20;;;;;;;0.06;67.60;97932.33;104655;1269;132862;-76
2024/01/17 11:18:47;;;;;;;10.10;5.40;;;;;;;0.10;67.32;97929.66;104729;1269;94401;-75
2024/01/17 11:21:14;;;;;;;7.20;4.30;;;;;;;0.15;67.60;97922.14;105206;1269;94309;-76
2024/01/17 11:23:49;;;;;;;;;;;;;;;0.19;67.47;97916.02;105232;1269;94309;-75